Terminal Aerodrome Forecast
Issued by NWS Charleston, WV

Current Version | Previous Version | Graphics & Text | Print | Product List | Glossary On
Versions: 1 2 3 4 5 6 7 8 9 10 11 12 13 14 15 16 17 18 19 20 21
000
FTUS41 KRLX 181700
TAFHTS
TAF
KHTS 181737Z 1818/1918 28006G16KT P6SM OVC030
     FM182200 29006G16KT P6SM OVC025
     FM190100 32005KT P6SM BKN025
     FM191000 31004KT P6SM SCT025
     FM191100 VRB03KT 6SM BR SCT015
     FM191300 VRB03KT P6SM SCT035=

USA.gov is the U.S. government's official web portal to all federal, state and local government web resources and services.